createdAt,value
2023-04-29T00:02:48.240Z,13.79
2023-04-29T00:06:13.357Z,13.75
2023-04-29T00:09:38.487Z,13.72
2023-04-29T00:13:03.743Z,13.69
2023-04-29T00:16:28.991Z,13.7
2023-04-29T00:19:54.272Z,13.68
2023-04-29T00:23:19.288Z,13.65
2023-04-29T00:26:44.445Z,13.63
2023-04-29T00:30:09.676Z,13.62
2023-04-29T00:33:34.852Z,13.61
2023-04-29T00:37:00.040Z,13.6
2023-04-29T00:40:25.241Z,13.6
2023-04-29T00:43:50.445Z,13.57
2023-04-29T00:47:15.664Z,13.6
2023-04-29T00:50:40.824Z,13.6
2023-04-29T00:54:06.021Z,13.61
2023-04-29T00:57:31.246Z,13.62
2023-04-29T01:00:56.496Z,13.63
2023-04-29T01:04:21.645Z,13.64
2023-04-29T01:07:46.800Z,13.65
2023-04-29T01:11:12.001Z,13.64
2023-04-29T01:14:37.198Z,13.63
2023-04-29T01:18:02.408Z,13.62
2023-04-29T01:21:27.633Z,13.61
2023-04-29T01:24:52.824Z,13.57
2023-04-29T01:28:18.017Z,13.54
2023-04-29T01:31:43.280Z,13.51
2023-04-29T01:35:08.444Z,13.49
2023-04-29T01:38:33.641Z,13.46
2023-04-29T01:41:58.805Z,13.43
2023-04-29T01:45:23.982Z,13.39
2023-04-29T01:48:49.193Z,13.35
2023-04-29T01:52:14.391Z,13.33
2023-04-29T01:55:39.607Z,13.32
2023-04-29T01:59:04.773Z,13.33
2023-04-29T02:02:30.010Z,13.33
2023-04-29T02:05:55.165Z,13.34
2023-04-29T02:09:20.335Z,13.36
2023-04-29T02:12:45.671Z,13.37
2023-04-29T02:16:10.770Z,13.34
2023-04-29T02:19:35.951Z,13.37
2023-04-29T02:23:01.159Z,13.38
2023-04-29T02:26:26.421Z,13.39
2023-04-29T02:29:51.942Z,13.35
2023-04-29T02:33:16.817Z,13.35
2023-04-29T02:36:42.028Z,13.35
2023-04-29T02:40:07.215Z,13.37
2023-04-29T02:43:32.419Z,13.38
2023-04-29T02:46:57.613Z,13.38
2023-04-29T02:50:22.815Z,13.38
2023-04-29T02:53:48.014Z,13.35
2023-04-29T02:57:13.221Z,13.33
2023-04-29T03:00:38.403Z,13.32
2023-04-29T03:04:03.769Z,13.32
2023-04-29T03:07:28.820Z,13.31
2023-04-29T03:10:54.017Z,13.28
2023-04-29T03:14:19.214Z,13.24
2023-04-29T03:17:44.412Z,13.2
2023-04-29T03:21:09.618Z,13.15
2023-04-29T03:24:34.774Z,13.12
2023-04-29T03:27:59.968Z,13.07
2023-04-29T03:31:25.137Z,13.03
2023-04-29T03:34:50.339Z,13.01
2023-04-29T03:38:15.573Z,13
2023-04-29T03:41:40.718Z,13
2023-04-29T03:45:05.902Z,13
2023-04-29T03:48:31.108Z,13
2023-04-29T03:51:56.316Z,12.97
2023-04-29T03:55:21.532Z,12.96
2023-04-29T03:58:46.700Z,12.91
2023-04-29T04:02:11.908Z,12.9
2023-04-29T04:05:37.081Z,12.92
2023-04-29T04:09:02.249Z,12.92
2023-04-29T04:12:27.470Z,12.94
2023-04-29T04:15:52.712Z,12.93
2023-04-29T04:19:18.217Z,12.92
2023-04-29T04:22:43.378Z,12.91
2023-04-29T04:26:08.565Z,12.93
2023-04-29T04:29:33.766Z,12.94
2023-04-29T04:32:58.942Z,12.95
2023-04-29T04:36:24.120Z,12.96
2023-04-29T04:39:49.363Z,12.97
2023-04-29T04:43:14.536Z,13.02
2023-04-29T04:46:40.323Z,13.04
2023-04-29T04:50:05.501Z,13.09
2023-04-29T04:53:30.718Z,13.13
2023-04-29T04:56:55.914Z,13.17
2023-04-29T05:00:21.129Z,13.22
2023-04-29T05:03:46.600Z,13.25
2023-04-29T05:07:11.532Z,13.26
2023-04-29T05:10:36.836Z,13.28
2023-04-29T05:14:02.124Z,13.3
2023-04-29T05:17:27.397Z,13.34
2023-04-29T05:20:52.579Z,13.39
2023-04-29T05:24:17.799Z,13.41
2023-04-29T05:27:43.027Z,13.43
2023-04-29T05:31:08.370Z,13.44
2023-04-29T05:34:33.556Z,13.47
2023-04-29T05:37:58.721Z,13.5
2023-04-29T05:41:23.876Z,13.52
2023-04-29T05:44:49.054Z,13.54
2023-04-29T05:48:14.205Z,13.56
2023-04-29T05:51:39.372Z,13.58
2023-04-29T05:55:04.564Z,13.62
2023-04-29T05:58:29.681Z,13.65
2023-04-29T06:01:54.850Z,13.68
2023-04-29T06:05:20.162Z,13.68
2023-04-29T06:08:45.167Z,13.67
2023-04-29T06:12:10.429Z,13.66
2023-04-29T06:15:35.665Z,13.73
2023-04-29T06:19:00.819Z,13.81
2023-04-29T06:22:25.993Z,13.86
2023-04-29T06:25:52.899Z,13.86
2023-04-29T06:29:16.374Z,13.87
2023-04-29T06:32:41.544Z,13.86
2023-04-29T06:36:06.693Z,13.83
2023-04-29T06:39:31.866Z,13.82
2023-04-29T06:42:57.014Z,13.79
2023-04-29T06:46:22.238Z,13.77
2023-04-29T06:49:47.362Z,13.74
2023-04-29T06:53:12.523Z,13.69
2023-04-29T06:56:37.696Z,13.6
2023-04-29T07:00:02.884Z,13.5
2023-04-29T07:03:28.137Z,13.4
2023-04-29T07:06:53.167Z,13.28
2023-04-29T07:10:18.338Z,13.2
2023-04-29T07:13:43.503Z,13.14
2023-04-29T07:17:08.669Z,13.16
2023-04-29T07:20:33.844Z,13.13
2023-04-29T07:23:58.971Z,13.11
2023-04-29T07:27:24.163Z,13.05
2023-04-29T07:30:49.406Z,13.01
2023-04-29T07:34:14.515Z,12.97
2023-04-29T07:37:40.317Z,12.95
2023-04-29T07:41:04.864Z,12.9
2023-04-29T07:44:30.062Z,12.88
2023-04-29T07:47:55.374Z,12.91
2023-04-29T07:51:20.549Z,12.95
2023-04-29T07:54:45.780Z,13.01
2023-04-29T07:58:10.946Z,13.02
2023-04-29T08:01:36.154Z,13
2023-04-29T08:05:02.091Z,13.01
2023-04-29T08:08:26.639Z,13.06
2023-04-29T08:11:51.829Z,13.14
2023-04-29T08:15:17.042Z,13.23
2023-04-29T08:18:42.437Z,13.37
2023-04-29T08:22:07.481Z,13.54
2023-04-29T08:25:32.716Z,13.7
2023-04-29T08:28:57.970Z,13.83
2023-04-29T08:32:23.197Z,13.97
2023-04-29T08:35:48.416Z,14.17
2023-04-29T08:39:13.647Z,14.23
2023-04-29T08:42:38.878Z,14.27
2023-04-29T08:46:04.155Z,14.33
2023-04-29T08:49:29.332Z,14.31
2023-04-29T08:52:54.588Z,14.26
2023-04-29T08:56:19.885Z,14.17
2023-04-29T08:59:45.104Z,14.11
2023-04-29T09:03:10.448Z,13.98
2023-04-29T09:06:35.574Z,13.85
2023-04-29T09:10:00.777Z,13.75
2023-04-29T09:13:25.992Z,13.69
2023-04-29T09:16:51.263Z,13.6
2023-04-29T09:20:16.652Z,13.56
2023-04-29T09:23:41.696Z,13.52
2023-04-29T09:27:06.954Z,13.49
2023-04-29T09:30:32.165Z,13.49
2023-04-29T09:33:57.380Z,13.57
2023-04-29T09:37:22.664Z,13.69
2023-04-29T09:40:58.721Z,13.86
2023-04-29T09:44:13.104Z,13.96
2023-04-29T09:47:38.382Z,13.98
2023-04-29T09:51:03.792Z,13.97
2023-04-29T09:54:28.873Z,13.97
2023-04-29T09:57:54.094Z,14.01
2023-04-29T10:01:19.404Z,14.04
2023-04-29T10:04:44.622Z,14.09
2023-04-29T10:08:09.858Z,14.12
2023-04-29T10:11:35.058Z,14.15
2023-04-29T10:15:00.225Z,14.22
2023-04-29T10:18:25.375Z,14.28
2023-04-29T10:21:50.513Z,14.28
2023-04-29T10:25:15.681Z,14.29
2023-04-29T10:28:40.938Z,14.27
2023-04-29T10:32:06.031Z,14.28
2023-04-29T10:35:31.200Z,14.32
2023-04-29T10:38:56.356Z,14.38
2023-04-29T10:42:21.539Z,14.38
2023-04-29T10:45:46.740Z,14.41
2023-04-29T10:49:11.921Z,14.4
2023-04-29T10:52:37.053Z,14.43
2023-04-29T10:56:02.276Z,14.44
2023-04-29T10:59:27.427Z,14.37
2023-04-29T11:02:52.770Z,14.29
2023-04-29T11:06:17.786Z,14.2
2023-04-29T11:09:42.946Z,14.06
2023-04-29T11:13:08.114Z,13.99
2023-04-29T11:16:33.317Z,13.94
2023-04-29T11:19:58.478Z,13.82
2023-04-29T11:23:23.625Z,13.74
2023-04-29T11:26:48.830Z,13.72
2023-04-29T11:30:13.958Z,13.7
2023-04-29T11:33:39.117Z,13.7
2023-04-29T11:37:04.296Z,13.72
2023-04-29T11:40:29.448Z,13.8
2023-04-29T11:43:54.608Z,13.95
2023-04-29T11:47:19.804Z,14.05
2023-04-29T11:50:44.957Z,14.16
2023-04-29T11:54:10.135Z,14.31
2023-04-29T11:57:35.310Z,14.49
2023-04-29T12:01:00.508Z,14.61
2023-04-29T12:04:25.822Z,14.67
2023-04-29T12:07:50.844Z,14.71
2023-04-29T12:11:16.051Z,14.66
2023-04-29T12:14:41.211Z,14.59
2023-04-29T12:18:06.403Z,14.52
2023-04-29T12:21:31.583Z,14.45
2023-04-29T12:24:56.756Z,14.39
2023-04-29T12:28:21.957Z,14.3
2023-04-29T12:31:47.111Z,14.23
2023-04-29T12:35:12.260Z,14.21
2023-04-29T12:38:37.416Z,14.23
2023-04-29T12:42:02.577Z,14.27
2023-04-29T12:45:27.784Z,14.25
2023-04-29T12:48:52.966Z,14.26
2023-04-29T12:52:18.135Z,14.34
2023-04-29T12:55:44.015Z,14.35
2023-04-29T12:59:08.832Z,14.24
2023-04-29T13:02:34.108Z,14.16
2023-04-29T13:05:59.166Z,14.09
2023-04-29T13:09:24.360Z,14.03
2023-04-29T13:12:49.552Z,13.92
2023-04-29T13:16:14.721Z,13.9
2023-04-29T13:19:50.097Z,13.89
2023-04-29T13:23:05.012Z,13.89
2023-04-29T13:26:30.187Z,13.93
2023-04-29T13:29:55.355Z,14.01
2023-04-29T13:33:20.556Z,14.09
2023-04-29T13:36:45.700Z,14.14
2023-04-29T13:40:18.785Z,14.18
2023-04-29T13:43:38.918Z,14.23
2023-04-29T13:47:01.624Z,14.19
2023-04-29T13:51:04.571Z,14.14
2023-04-29T13:57:56.516Z,14.04
2023-04-29T14:01:01.722Z,14
2023-04-29T14:04:07.798Z,13.95
2023-04-29T14:07:32.812Z,13.9
2023-04-29T14:10:58.008Z,13.8
2023-04-29T14:14:23.152Z,13.6
2023-04-29T14:17:48.327Z,13.43
2023-04-29T14:21:13.484Z,13.31
2023-04-29T14:24:38.649Z,13.25
2023-04-29T14:28:03.842Z,13.18
2023-04-29T14:31:29.159Z,13.11
2023-04-29T14:34:54.334Z,13.04
2023-04-29T14:38:19.314Z,12.97
2023-04-29T14:41:44.482Z,12.91
2023-04-29T14:45:09.690Z,12.91
2023-04-29T14:48:34.801Z,12.99
2023-04-29T14:51:59.977Z,13.1
2023-04-29T14:55:25.135Z,13.16
2023-04-29T14:58:50.301Z,13.19
2023-04-29T15:02:15.497Z,13.26
2023-04-29T15:05:40.652Z,13.32
2023-04-29T15:39:55.340Z,11.19
2023-04-29T15:43:20.511Z,12.13
2023-04-29T15:46:45.514Z,12.33
2023-04-29T15:50:10.724Z,12.52
2023-04-29T15:53:35.945Z,12.7
2023-04-29T15:57:01.183Z,12.81
2023-04-29T16:00:26.394Z,12.92
2023-04-29T16:03:51.621Z,13.04
2023-04-29T16:07:16.814Z,13.07
2023-04-29T16:10:42.036Z,13.1
2023-04-29T16:14:07.373Z,13.11
2023-04-29T16:17:33.380Z,13.06
2023-04-29T16:20:58.617Z,13.04
2023-04-29T16:24:23.824Z,13.04
2023-04-29T16:27:49.011Z,13.02
2023-04-29T16:31:14.260Z,12.98
2023-04-29T16:34:39.401Z,13.01
2023-04-29T16:38:04.613Z,13.05
2023-04-29T16:41:29.819Z,13.11
2023-04-29T16:44:55.034Z,13.17
2023-04-29T16:48:20.319Z,13.19
2023-04-29T16:51:45.429Z,13.15
2023-04-29T16:55:10.648Z,13.15
2023-04-29T16:58:35.827Z,13.16
2023-04-29T17:02:01.134Z,13.13
2023-04-29T17:05:26.314Z,13.14
2023-04-29T17:08:51.723Z,13.14
2023-04-29T17:12:16.651Z,13.15
2023-04-29T17:15:41.893Z,13.11
2023-04-29T17:19:07.083Z,13.09
2023-04-29T17:22:32.265Z,13.12
2023-04-29T17:25:57.488Z,13.12
2023-04-29T17:29:22.667Z,13.17
2023-04-29T17:32:47.961Z,13.2
2023-04-29T17:36:13.392Z,13.24
2023-04-29T17:39:38.649Z,13.27
2023-04-29T17:43:03.861Z,13.3
2023-04-29T17:46:29.276Z,13.3
2023-04-29T17:49:54.540Z,13.28
2023-04-29T17:53:19.514Z,13.24
2023-04-29T17:56:44.736Z,13.2
2023-04-29T18:00:09.933Z,13.12
2023-04-29T18:03:35.133Z,13.1
2023-04-29T18:07:00.295Z,13.07
2023-04-29T18:10:25.479Z,13.02
2023-04-29T18:13:50.690Z,12.97
2023-04-29T18:17:15.853Z,12.92
2023-04-29T18:20:41.069Z,12.86
2023-04-29T18:24:06.244Z,12.82
2023-04-29T18:27:31.520Z,12.76
2023-04-29T18:30:56.736Z,12.73
2023-04-29T18:34:21.913Z,12.73
2023-04-29T18:37:47.079Z,12.71
2023-04-29T18:41:12.290Z,12.72
2023-04-29T18:44:37.490Z,12.74
2023-04-29T18:48:02.728Z,12.73
2023-04-29T18:51:27.881Z,12.74
2023-04-29T18:54:53.096Z,12.71
2023-04-29T18:58:18.324Z,12.72
2023-04-29T19:01:43.550Z,12.7
2023-04-29T19:05:08.759Z,12.7
2023-04-29T19:08:33.904Z,12.69
2023-04-29T19:11:59.365Z,12.69
2023-04-29T19:15:24.522Z,12.68
2023-04-29T19:18:49.710Z,12.64
2023-04-29T19:22:14.924Z,12.61
2023-04-29T19:25:40.101Z,12.56
2023-04-29T19:29:05.285Z,12.55
2023-04-29T19:32:30.614Z,12.51
2023-04-29T19:35:55.707Z,12.46
2023-04-29T19:39:20.921Z,12.44
2023-04-29T19:42:46.098Z,12.45
2023-04-29T19:46:11.439Z,12.47
2023-04-29T19:49:36.589Z,12.43
2023-04-29T19:53:01.782Z,12.4
2023-04-29T19:56:26.987Z,12.44
2023-04-29T19:59:52.385Z,12.46
2023-04-29T20:03:17.374Z,12.5
2023-04-29T20:06:42.603Z,12.46
2023-04-29T20:10:07.798Z,12.37
2023-04-29T20:13:32.977Z,12.34
2023-04-29T20:17:00.328Z,12.35
2023-04-29T20:20:23.354Z,12.34
2023-04-29T20:23:48.554Z,12.3
2023-04-29T20:27:13.745Z,12.23
2023-04-29T20:30:38.951Z,12.12
2023-04-29T20:34:04.105Z,12.09
2023-04-29T20:37:29.347Z,12.08
2023-04-29T20:40:54.545Z,12.08
2023-04-29T20:44:19.744Z,12.09
2023-04-29T20:47:44.986Z,12.11
2023-04-29T20:51:10.302Z,12.13
2023-04-29T20:54:35.499Z,12.12
2023-04-29T20:58:00.665Z,12.13
2023-04-29T21:01:25.875Z,12.13
2023-04-29T21:04:51.152Z,12.12
2023-04-29T21:08:16.320Z,12.13
2023-04-29T21:11:41.506Z,12.13
2023-04-29T21:15:06.675Z,12.14
2023-04-29T21:18:31.872Z,12.17
2023-04-29T21:21:57.085Z,12.21
2023-04-29T21:25:22.277Z,12.2
2023-04-29T21:28:47.475Z,12.19
2023-04-29T21:32:12.670Z,12.19
2023-04-29T21:35:37.848Z,12.18
2023-04-29T21:39:03.098Z,12.14
2023-04-29T21:42:28.281Z,12.11
2023-04-29T21:45:53.497Z,12.09
2023-04-29T21:49:18.676Z,12.07
2023-04-29T21:52:43.846Z,12.05
2023-04-29T21:56:09.052Z,12.03
2023-04-29T21:59:34.226Z,12.04
2023-04-29T22:02:59.410Z,12.08
2023-04-29T22:06:24.677Z,12.09
2023-04-29T22:09:49.877Z,12.1
2023-04-29T22:13:14.987Z,12.11
2023-04-29T22:16:40.245Z,12.14
2023-04-29T22:20:05.358Z,12.14
2023-04-29T22:23:30.559Z,12.12
2023-04-29T22:26:55.736Z,12.11
2023-04-29T22:30:21.029Z,12.12
2023-04-29T22:33:46.130Z,12.09
2023-04-29T22:37:11.320Z,12.07
2023-04-29T22:40:37.235Z,12.06
2023-04-29T22:44:01.784Z,12.06
2023-04-29T22:47:26.991Z,12.05
2023-04-29T22:50:52.147Z,12.05
2023-04-29T22:54:17.334Z,12.03
2023-04-29T22:57:42.531Z,12.03
2023-04-29T23:01:08.527Z,12.03
2023-04-29T23:04:32.986Z,12.05
2023-04-29T23:07:58.102Z,12.07
2023-04-29T23:11:23.288Z,12.06
2023-04-29T23:14:48.480Z,12.03
2023-04-29T23:18:13.802Z,11.99
2023-04-29T23:21:38.957Z,11.98
2023-04-29T23:25:04.155Z,11.96
2023-04-29T23:28:29.348Z,11.92
2023-04-29T23:31:54.565Z,11.92
2023-04-29T23:35:19.797Z,11.89
2023-04-29T23:38:45.018Z,11.88
2023-04-29T23:42:10.154Z,11.88
2023-04-29T23:45:35.350Z,11.85
2023-04-29T23:49:00.581Z,11.79
2023-04-29T23:52:25.786Z,11.81
2023-04-29T23:55:51.060Z,11.84
2023-04-29T23:59:16.221Z,11.83
